KUNU/UNU METAR and TAF weather

Enter ICAO airport designator
Station Type Date Time Source
KUNU METAR 2019/04/18 10:55 UTC NOAA

KUNU 181055Z AUTO 31005KT 10SM SCT013 OVC027 08/06 A2955 RMK AO2 T00760060 TSNO


Station Type Date Time Source
KUNU Decoded METAR 2019/04/18 10:55 UTC NOAA

Juneau, Dodge County Airport, WI, United States (KUNU) 43-25-36N 088-42-12W
Apr 18, 2019 - 06:55 AM EDT / 2019.04.18 1055 UTC
Wind: from the NW (310 degrees) at 6 MPH (5 KT):0
Visibility: 10 mile(s):0
Sky conditions: overcast
Temperature: 45.7 F (7.6 C)
Dew Point: 42.8 F (6.0 C)
Relative Humidity: 89%
Pressure (altimeter): 29.55 in. Hg (1000 hPa)
ob: KUNU 181055Z AUTO 31005KT 10SM SCT013 OVC027 08/06 A2955 RMK AO2 T00760060 TSNO
cycle: 11

Station Type Date Time Source
KUNU TAF UTC NOAA

Error!

Example: see airport list